23 mai 2022

Temps Code Temps Temp. Vue Des nuages Vent METAR/SPECI
18:00
V
23 °C 10 km+ 5.600 ft 300°   300° 10 kt METAR LFBO 231600Z AUTO 30010KT 9999 SCT049 BKN056 23/11 Q1010 NOSIG
17:30
V
23 °C 10 km+ 4.600 ft 300°   300° 7 kt METAR LFBO 231530Z AUTO 30007KT 9999 BKN046 BKN052 23/12 Q1010 NOSIG
17:00
V
23 °C 10 km+ 4.500 ft 280°   280° 11 kt METAR LFBO 231500Z AUTO 28011KT 250V340 9999 FEW037 BKN045 BKN054 23/12 Q1010 NOSIG
16:30
V
21 °C 10 km+ 5.000 ft 310°   310° 8 kt METAR LFBO 231430Z AUTO 31008KT 9999 FEW035 SCT044 BKN050 21/12 Q1010 NOSIG
16:00
V
20 °C 10 km+ 4.100 ft 290°   290° 9 kt METAR LFBO 231400Z AUTO 29009KT 9999 BKN041 OVC050 20/13 Q1011 NOSIG
15:30
V
20 °C 10 km+ 4.000 ft 270°   270° 9 kt METAR LFBO 231330Z AUTO 27009KT 190V300 9999 FEW032 BKN040 BKN049 20/12 Q1011 NOSIG
15:00
V
19 °C 10 km+ 4.100 ft 260°   260° 7 kt METAR LFBO 231300Z AUTO 26007KT 230V290 9999 FEW025 SCT035 BKN041 19/14 Q1011 NOSIG
14:30
V
18 °C 10 km+ 3.000 ft 280°   280° 7 kt METAR LFBO 231230Z AUTO 28007KT 9999 SCT022 BKN030 OVC038 18/14 Q1011 NOSIG
14:00
M
18 °C 10 km+ 2.000 ft 300°   300° 7 kt METAR LFBO 231200Z AUTO 30007KT 9999 BKN020 BKN028 OVC033 18/14 Q1011 NOSIG
13:30
V
18 °C 10 km+ 3.000 ft 270°   270° 9 kt METAR LFBO 231130Z AUTO 27009KT 9999 SCT020 BKN030 OVC035 18/14 Q1011 NOSIG
13:00
M
18 °C 10 km+ 2.100 ft 280°   280° 15 kt METAR LFBO 231100Z AUTO 28015KT 9999 OVC021 18/13 Q1011 NOSIG
12:30
M
18 °C 10 km+ 1.700 ft 270°   270° 12 kt METAR LFBO 231030Z AUTO 27012KT 9999 BKN017 BKN024 OVC039 18/14 Q1011 NOSIG
12:00
M
19 °C 10 km+ 1.500 ft 270°   270° 12 kt METAR LFBO 231000Z AUTO 27012KT 9999 BKN015 BKN021 BKN027 19/15 Q1011 NOSIG
11:30
M
17 °C 10 km+ 1.000 ft 260°   260° 10 kt METAR LFBO 230930Z AUTO 26010KT 9999 BKN010 BKN014 BKN023 17/15 Q1011 BECMG BKN045
11:00
I
17 °C 8 km 800 ft 240°   240° 9 kt METAR LFBO 230900Z AUTO 24009KT 8000 BKN008 OVC019 17/15 Q1011 TEMPO SCT013 BKN030 SCT050TCU
10:30
I
17 °C 9 km 900 ft 260°   260° 10 kt METAR LFBO 230830Z AUTO 26010KT 9000 BKN009 BKN014 OVC019 17/15 Q1011 TEMPO SCT013 BKN030 SCT050TCU
10:00
I
17 °C 9 km 900 ft 260°   260° 11 kt METAR LFBO 230800Z AUTO 26011KT 9000 -RADZ BKN009 OVC015 17/15 Q1011 BECMG BKN025 BKN050
09:30
I
17 °C 10 km+ 900 ft 240°   240° 8 kt METAR LFBO 230730Z AUTO 24008KT 9999 -DZ BKN009 BKN016 OVC024 17/15 Q1011 BECMG BKN025 BKN050
09:00
M
17 °C 10 km+ 1.000 ft 260°   260° 9 kt METAR LFBO 230700Z AUTO 26009KT 230V290 9999 -DZ BKN010 BKN014 OVC023 17/15 Q1011 BECMG BKN025 BKN050
08:30
M
17 °C 10 km+ 2.300 ft 260°   260° 10 kt METAR LFBO 230630Z AUTO 26010KT 9999 FEW012 OVC023 17/14 Q1011 NOSIG
08:00
M
17 °C 10 km+ 1.600 ft 260°   260° 9 kt METAR LFBO 230600Z AUTO 26009KT 9999 BKN016 BKN022 OVC027 17/15 Q1011 TEMPO 30020G30KT RA BKN013 SCT060CB
07:30
M
17 °C 10 km+ 1.500 ft 260°   260° 10 kt METAR LFBO 230530Z AUTO 26010KT 9999 OVC015 17/15 Q1011 TEMPO SHRA SCT015 BKN040TCU
07:00
M
17 °C 10 km+ 1.200 ft 270°   270° 10 kt METAR LFBO 230500Z AUTO 27010KT 9999 OVC012/// ///CB 17/15 Q1011 TEMPO 30020G30KT SHRA SCT015 BKN040TCU
06:30
M
17 °C 10 km+ 1.400 ft 250°   250° 6 kt METAR LFBO 230430Z AUTO 25006KT 220V280 9999 -RADZ FEW008/// BKN014/// BKN022/// ///CB 17/15 Q1010 TEMPO 30020G30KT SHRA SCT015 BKN040TCU
06:00
M
17 °C 10 km+ 1.400 ft 230°   230° 6 kt METAR LFBO 230400Z AUTO 23006KT 9999 -RA SCT009/// BKN014/// BKN022/// //////CB 17/15 Q1010 TEMPO 30020G30KT TSRA
05:30
M
18 °C 10 km+ 1.500 ft 250°   250° 10 kt METAR LFBO 230330Z AUTO 25010KT 9999 TS OVC015/// ///CB 18/16 Q1010 TEMPO 30020G30KT BECMG BKN014
05:00
M
18 °C 10 km+ 1.400 ft 240°   240° 6 kt METAR LFBO 230300Z AUTO 24006KT 210V300 9999 BKN014/// OVC020/// //////CB 18/16 Q1010 TEMPO 30020G30KT TSRA
04:30
M
18 °C 10 km+ 1.600 ft 270°   270° 6 kt METAR LFBO 230230Z AUTO 27006KT 9999 TS BKN016/// OVC023/// ///CB 18/16 Q1010 TEMPO 30020G30KT BECMG BKN014
04:00
M
18 °C 10 km+ 1.500 ft 270°   270° 9 kt METAR LFBO 230200Z AUTO 27009KT 9999 VCTS OVC015/// //////CB 18/16 Q1011 TEMPO 30020G30KT BECMG BKN014
03:30
M
19 °C 10 km+ 1.700 ft 330°   330° 15 kt METAR LFBO 230130Z AUTO 33015KT 9999 -RA BKN017/// BKN048/// OVC076/// ///CB 19/17 Q1009 TEMPO 30020G30KT TSRA BECMG BKN014
03:00
M
19 °C 10 km+ 1.800 ft 280°   280° 14 kt METAR LFBO 230100Z AUTO 28014KT 9999 OVC018/// ///TCU 19/16 Q1011 TEMPO 30020G30KT TSRA SCT060CB
02:30
M
20 °C 10 km+ 1.900 ft 290°   290° 12 kt METAR LFBO 230030Z AUTO 29012KT 9999 OVC019/// ///TCU 20/16 Q1010 TEMPO 30020G30KT TSRA SCT060CB
02:00
M
20 °C 10 km+ 2.000 ft 280°   280° 12 kt METAR LFBO 230000Z AUTO 28012KT 9999 BKN020/// BKN150/// OVC180/// ///TCU 20/16 Q1011 TEMPO SHRA BKN014
01:30
V
20 °C 10 km+ 17.000 ft 280°   280° 16 kt METAR LFBO 222330Z AUTO 28016KT 9999 FEW020 OVC170 20/16 Q1010 TEMPO 4000 SHRA SCT060CB
01:00
V
24 °C 10 km+ - 270°   270° 17 kt METAR LFBO 222300Z AUTO 27017KT CAVOK 24/14 Q1009 TEMPO 4000 SHRA SCT060CB
00:30
V
25 °C 10 km+ - Var   Var 3 kt METAR LFBO 222230Z AUTO VRB03KT CAVOK 25/18 Q1008 TEMPO 4000 SHRA SCT060CB
00:00
V
27 °C 10 km+ - 040°   040° 4 kt METAR LFBO 222200Z AUTO 04004KT 350V080 CAVOK 27/17 Q1007 TEMPO 4000 SHRA SCT060CB BECMG 28012KT

22 mai 2022

Temps Code Temps Temp. Vue Des nuages Vent METAR/SPECI
23:30
V
25 °C 10 km+ - Var   Var 2 kt METAR LFBO 222130Z AUTO VRB02KT CAVOK 25/17 Q1008 TEMPO 4000 SHRA SCT060CB BECMG 28012KT
23:00
V
26 °C 10 km+ - 260°   260° 3 kt METAR LFBO 222100Z AUTO 26003KT 210V300 CAVOK 26/17 Q1008 TEMPO 30020G35KT 4000 SHRA SCT060CB
22:30
V
26 °C 10 km+ 23.000 ft 150°   150° 5 kt METAR LFBO 222030Z AUTO 15005KT 120V180 9999 FEW007 SCT150 BKN230 26/17 Q1008 TEMPO 4000 SHRA SCT060CB BECMG 28012KT
22:00
V
27 °C 10 km+ - 260°   260° 11 kt METAR LFBO 222000Z AUTO 26011KT 230V300 CAVOK 27/17 Q1007 TEMPO 30020G35KT 4000 TSRA SCT030TCU SCT050CB
21:30
V
27 °C 10 km+ - 150°   150° 8 kt METAR LFBO 221930Z AUTO 15008KT CAVOK 27/17 Q1006 TEMPO 30020G35KT 4000 TSRA SCT030TCU SCT050CB
21:00
V
28 °C 10 km+ - 150°   150° 7 kt METAR LFBO 221900Z AUTO 15007KT 120V180 CAVOK 28/15 Q1005 TEMPO 30020G35KT 4000 TSRA SCT030TCU SCT050CB
20:30
V
29 °C 10 km+ - 120°   120° 6 kt METAR LFBO 221830Z AUTO 12006KT 080V170 CAVOK 29/16 Q1005 TEMPO 30020G35KT 4000 TSRA SCT030TCU SCT050CB
20:00
V
29 °C 10 km+ - 140°   140° 11 kt METAR LFBO 221800Z AUTO 14011KT 9999 FEW007 29/15 Q1006 TEMPO 32020G35KT 4000 TSRA SCT030TCU SCT050CB
19:30
V
29 °C 10 km+ 14.000 ft 140°   140° 12 27 kt METAR LFBO 221730Z AUTO 14012G27KT 110V180 9999 FEW007 BKN140 BKN170 29/14 Q1006 TEMPO 32020G35KT 4000 TSRA SCT030TCU SCT050CB
19:00
V
29 °C 10 km+ 16.000 ft Var   Var 4 kt METAR LFBO 221700Z AUTO VRB04KT 9999 FEW007 BKN160 29/17 Q1007 TEMPO 32020G35KT 4000 TSRA SCT030TCU SCT050CB
18:30
V
29 °C 10 km+ - 160°   160° 14 kt METAR LFBO 221630Z AUTO 16014KT 9999 FEW009 29/17 Q1008 TEMPO 32020G35KT 4000 TSRA SCT030TCU SCT050CB
18:00
V
29 °C 10 km+ - 130°   130° 11 kt METAR LFBO 221600Z AUTO 13011KT 9999 FEW008 SCT180 29/16 Q1007 TEMPO 32020G35KT 4000 TSRA SCT030TCU SCT050CB
17:30
V
29 °C 10 km+ - 170°   170° 10 kt METAR LFBO 221530Z AUTO 17010KT 130V210 CAVOK 29/15 Q1008 TEMPO 32020G35KT 4000 TSRA SCT030TCU SCT050CB
17:00
V
29 °C 10 km+ - 160°   160° 12 kt METAR LFBO 221500Z AUTO 16012KT CAVOK 29/15 Q1008 NOSIG
16:30
V
30 °C 10 km+ - 090°   090° 7 kt METAR LFBO 221430Z AUTO 09007KT 020V140 CAVOK 30/15 Q1007 NOSIG
16:00
V
29 °C 10 km+ - 130°   130° 8 kt METAR LFBO 221400Z AUTO 13008KT 080V170 9999 FEW008 SCT160 29/15 Q1008 NOSIG
15:30
V
30 °C 10 km+ - 150°   150° 10 kt METAR LFBO 221330Z AUTO 15010KT CAVOK 30/15 Q1009 NOSIG
15:00
V
30 °C 10 km+ - 140°   140° 11 kt METAR LFBO 221300Z AUTO 14011KT CAVOK 30/14 Q1009 NOSIG
14:30
V
31 °C 10 km+ - 130°   130° 10 kt METAR LFBO 221230Z AUTO 13010KT CAVOK 31/14 Q1009 NOSIG
14:00
V
30 °C 10 km+ - 130°   130° 12 kt METAR LFBO 221200Z AUTO 13012KT 080V170 CAVOK 30/14 Q1010 NOSIG
13:30
V
29 °C 10 km+ - 120°   120° 13 kt METAR LFBO 221130Z AUTO 12013KT CAVOK 29/15 Q1010 NOSIG
13:00
V
28 °C 10 km+ - 110°   110° 12 kt METAR LFBO 221100Z AUTO 11012KT CAVOK 28/14 Q1010 NOSIG
12:30
V
28 °C 10 km+ - 120°   120° 9 kt METAR LFBO 221030Z AUTO 12009KT CAVOK 28/15 Q1011 NOSIG
12:00
V
27 °C 10 km+ - 110°   110° 7 kt METAR LFBO 221000Z AUTO 11007KT 080V170 9999 FEW009 27/15 Q1011 NOSIG
11:30
V
27 °C 10 km+ - 140°   140° 7 kt METAR LFBO 220930Z AUTO 14007KT 110V170 9999 FEW008 27/15 Q1012 NOSIG
11:00
V
26 °C 10 km+ - 160°   160° 5 kt METAR LFBO 220900Z AUTO 16005KT 110V210 CAVOK 26/16 Q1012 NOSIG
10:30
V
24 °C 10 km+ - 180°   180° 4 kt METAR LFBO 220830Z AUTO 18004KT 110V210 CAVOK 24/16 Q1012 NOSIG
10:00
V
24 °C 10 km+ - 180°   180° 8 kt METAR LFBO 220800Z AUTO 18008KT 150V210 CAVOK 24/15 Q1013 NOSIG
09:30
V
23 °C 10 km+ - 170°   170° 7 kt METAR LFBO 220730Z AUTO 17007KT 130V200 9999 FEW008 23/15 Q1013 NOSIG
09:00
V
22 °C 10 km+ - 190°   190° 6 kt METAR LFBO 220700Z AUTO 19006KT 160V220 CAVOK 22/15 Q1013 NOSIG
08:30
V
21 °C 10 km+ - 170°   170° 5 kt METAR LFBO 220630Z AUTO 17005KT CAVOK 21/16 Q1013 NOSIG
08:00
I
20 °C 4,4 km - 170°   170° 3 kt METAR LFBO 220600Z AUTO 17003KT 120V210 9999 4400 NSC 20/16 Q1013 NOSIG
07:30
V
19 °C 10 km+ - 200°   200° 3 kt METAR LFBO 220530Z AUTO 20003KT 160V220 CAVOK 19/16 Q1013 NOSIG
07:00
V
19 °C 10 km+ - 130°   130° 5 kt METAR LFBO 220500Z AUTO 13005KT CAVOK 19/16 Q1012 NOSIG
06:30
V
19 °C 10 km+ - 170°   170° 5 kt METAR LFBO 220430Z AUTO 17005KT 120V190 9999 FEW007 19/16 Q1013 NOSIG
06:00
V
19 °C 10 km+ - 190°   190° 5 kt METAR LFBO 220400Z AUTO 19005KT 160V220 CAVOK 19/15 Q1013 NOSIG
05:30
V
19 °C 10 km+ - 180°   180° 4 kt METAR LFBO 220330Z AUTO 18004KT 140V230 CAVOK 19/16 Q1013 NOSIG
05:00
V
19 °C 10 km+ - 190°   190° 3 kt METAR LFBO 220300Z AUTO 19003KT CAVOK 19/16 Q1013 NOSIG
04:30
V
20 °C 10 km+ - 140°   140° 5 kt METAR LFBO 220230Z AUTO 14005KT CAVOK 20/16 Q1013 NOSIG
04:00
V
20 °C 10 km+ - 140°   140° 6 kt METAR LFBO 220200Z AUTO 14006KT 100V160 CAVOK 20/16 Q1013 NOSIG
03:30
V
21 °C 10 km+ - 130°   130° 9 kt METAR LFBO 220130Z AUTO 13009KT CAVOK 21/16 Q1013 NOSIG
03:00
V
21 °C 10 km+ - 140°   140° 8 kt METAR LFBO 220100Z AUTO 14008KT CAVOK 21/16 Q1013 NOSIG
02:30
V
21 °C 10 km+ - 130°   130° 10 kt METAR LFBO 220030Z AUTO 13010KT CAVOK 21/17 Q1013 NOSIG
02:00
V
22 °C 10 km+ - 140°   140° 9 kt METAR LFBO 220000Z AUTO 14009KT CAVOK 22/17 Q1014 NOSIG
01:30
V
22 °C 10 km+ - 150°   150° 8 kt METAR LFBO 212330Z AUTO 15008KT CAVOK 22/17 Q1014 NOSIG
01:00
V
22 °C 10 km+ - 140°   140° 9 kt METAR LFBO 212300Z AUTO 14009KT CAVOK 22/17 Q1014 NOSIG
00:30
V
22 °C 10 km+ - 150°   150° 7 kt METAR LFBO 212230Z AUTO 15007KT CAVOK 22/17 Q1015 NOSIG
00:00
V
23 °C 10 km+ - 150°   150° 10 kt METAR LFBO 212200Z AUTO 15010KT CAVOK 23/17 Q1015 NOSIG

21 mai 2022

Temps Code Temps Temp. Vue Des nuages Vent METAR/SPECI
23:30
V
23 °C 10 km+ - 150°   150° 8 kt METAR LFBO 212130Z AUTO 15008KT CAVOK 23/17 Q1015 NOSIG
23:00
V
24 °C 10 km+ - 160°   160° 7 kt METAR LFBO 212100Z AUTO 16007KT CAVOK 24/17 Q1015 NOSIG
22:30
V
24 °C 10 km+ - 160°   160° 8 kt METAR LFBO 212030Z AUTO 16008KT 9999 FEW009 24/17 Q1015 NOSIG
22:00
V
25 °C 10 km+ - 150°   150° 6 kt METAR LFBO 212000Z AUTO 15006KT CAVOK 25/16 Q1015 NOSIG
21:30
V
26 °C 10 km+ - 150°   150° 6 kt METAR LFBO 211930Z AUTO 15006KT CAVOK 26/16 Q1015 NOSIG
21:00
V
27 °C 10 km+ - 150°   150° 10 kt METAR LFBO 211900Z AUTO 15010KT CAVOK 27/16 Q1015 NOSIG
20:30
V
27 °C 10 km+ - 160°   160° 9 kt METAR LFBO 211830Z AUTO 16009KT 9999 FEW008 SCT180 27/16 Q1015 NOSIG
20:00
V
28 °C 10 km+ - 150°   150° 9 kt METAR LFBO 211800Z AUTO 15009KT CAVOK 28/16 Q1015 NOSIG
19:30
V
29 °C 10 km+ - 150°   150° 10 kt METAR LFBO 211730Z AUTO 15010KT 9999 FEW008 29/16 Q1015 NOSIG
19:00
V
30 °C 10 km+ - 150°   150° 11 kt METAR LFBO 211700Z AUTO 15011KT CAVOK 30/16 Q1015 NOSIG
18:30
V
31 °C 10 km+ - 150°   150° 11 kt METAR LFBO 211630Z AUTO 15011KT CAVOK 31/17 Q1015 NOSIG
18:00
V
32 °C 10 km+ - 150°   150° 10 kt METAR LFBO 211600Z AUTO 15010KT CAVOK 32/16 Q1015 NOSIG
17:30
V
32 °C 10 km+ - 140°   140° 11 kt METAR LFBO 211530Z AUTO 14011KT CAVOK 32/16 Q1016 NOSIG
17:00
V
32 °C 10 km+ - 130°   130° 9 kt METAR LFBO 211500Z AUTO 13009KT 090V180 CAVOK 32/16 Q1016 NOSIG
Données plus anciennes

Télécharge notre application

Un accès facile à toute la météo aéronautique sur ton téléphone portable et ta tablette.
Avec de nombreuses fonctionnalités non disponibles sur le site Web, comme la prise en charge hors ligne et une liste personnelle d'aéroports.

Nous et des tiers suivons ton comportement sur Internet sur notre site Web à l'aide de cookies. Si tu continues, nous supposons que tu acceptes notre politique en matière de cookies. Apprendre plus